Meteo

Condividi:

Previsioni per il volo, messo gentilmente a disposizione da www.datameteo.com

per info sul servizio, contattare info@datameteo.it


Metar LIMZ

Available data for LIMZ from the past 2 hours
LEVALDIGI
Metar
LIMZ 181050Z 35004KT 9999 FEW030 16/13 Q1018

10:50 UTC

Wind: 350° 4kt

Visibility: 9999 m

Sky: FEW 3000 ft

Temp: 16 deg C / 60.8 deg F

Dewpoint: 13 deg C / 55.4 deg F

Pressure: 1018 hPa

TAF
TAF LIMZ 180500Z 1806/1906 VRB05KT 8000 BKN040

Gif Infrarosso


Gif Nuvole


Ultima immagine Infrarosso


Ultima immagine Nuvole


Gif Pioggia

Condividi: